| time (UTC) | temp C | wind direction | speed KPH | gust KPH | rain 1hr cm | rain 24hr cm | rain mn cm | humidity % | barometer mb |
| 20260507081516 | 13 | 0 | 3.2 | 8.0 | 0.00 | 0.81 | 0.00 | 99 | 1004.8 |
| 20260507080516 | 13 | 0 | 1.6 | 8.0 | 0.00 | 0.81 | 0.00 | 99 | 1004.9 |
| 20260507075536 | 13 | 0 | 1.6 | 4.8 | 0.00 | 0.81 | 0.00 | 98 | 1004.9 |
| 20260507074515 | 13 | 0 | 1.6 | 4.8 | 0.00 | 0.81 | 0.00 | 99 | 1005.1 |
| 20260507073516 | 13 | 0 | 1.6 | 6.4 | 0.00 | 0.81 | 0.00 | 99 | 1005.3 |
| 20260507072516 | 13 | 0 | 3.2 | 9.7 | 0.00 | 0.81 | 0.00 | 99 | 1005.2 |
| 20260507071516 | 13 | 0 | 3.2 | 8.0 | 0.00 | 0.81 | 0.00 | 99 | 1005.6 |
| 20260507070535 | 13 | 0 | 3.2 | 6.4 | 0.00 | 0.81 | 0.00 | 99 | 1005.4 |
| 20260507065516 | 13 | 0 | 1.6 | 8.0 | 0.00 | 0.81 | 0.00 | 99 | 1005.3 |
| 20260507064516 | 13 | 0 | 3.2 | 9.7 | 0.00 | 0.81 | 0.00 | 98 | 1005.4 |
| 20260507063516 | 13 | 0 | 3.2 | 9.7 | 0.00 | 0.81 | 0.00 | 98 | 1005.5 |
| 20260507062515 | 13 | 0 | 3.2 | 14.5 | 0.00 | 0.81 | 0.00 | 99 | 1005.7 |
| 20260507061516 | 13 | 0 | 4.8 | 16.1 | 0.00 | 0.81 | 0.00 | 99 | 1005.5 |
| 20260507060515 | 13 | 0 | 4.8 | 14.5 | 0.00 | 0.81 | 0.00 | 99 | 1005.5 |
| 20260507055517 | 13 | 0 | 6.4 | 14.5 | 0.00 | 0.81 | 0.00 | 99 | 1005.7 |
| 20260507054515 | 13 | 0 | 4.8 | 12.9 | 0.00 | 0.81 | 0.00 | 98 | 1005.8 |
| 20260507053535 | 13 | 0 | 4.8 | 17.7 | 0.00 | 0.81 | 0.00 | 98 | 1006.1 |
| 20260507052517 | 13 | 0 | 9.7 | 29.0 | 0.00 | 0.81 | 0.00 | 99 | 1006.4 |
| 20260507051517 | 14 | 0 | 6.4 | 17.7 | 0.00 | 0.81 | 0.00 | 99 | 1006.4 |
| 20260507050517 | 14 | 0 | 8.0 | 19.3 | 0.00 | 0.81 | 0.00 | 99 | 1006.2 |
| 20260507045517 | 13 | 0 | 8.0 | 16.1 | 0.00 | 0.81 | 0.00 | 99 | 1006.3 |
| 20260507044538 | 14 | 0 | 6.4 | 19.3 | 0.00 | 0.81 | 0.00 | 98 | 1006.4 |
| 20260507043517 | 14 | 0 | 6.4 | 17.7 | 0.00 | 0.81 | 0.00 | 98 | 1006.5 |
| 20260507042517 | 14 | 0 | 8.0 | 20.9 | 0.00 | 0.81 | 0.00 | 98 | 1006.6 |
| 20260507041517 | 14 | 0 | 6.4 | 29.0 | 0.00 | 0.81 | 0.00 | 98 | 1006.7 |
| 20260507040539 | 14 | 0 | 4.8 | 17.7 | 0.00 | 0.81 | 0.00 | 98 | 1006.6 |
| 20260507035517 | 14 | 0 | 8.0 | 22.5 | 0.00 | 0.81 | 0.81 | 98 | 1006.6 |
| 20260507034516 | 14 | 0 | 9.7 | 24.1 | 0.00 | 0.81 | 0.81 | 98 | 1006.7 |
| 20260507033516 | 14 | 0 | 12.9 | 27.4 | 0.00 | 0.81 | 0.81 | 98 | 1006.6 |
| 20260507032516 | 14 | 0 | 11.3 | 22.5 | 0.00 | 0.81 | 0.81 | 98 | 1006.4 |
| 20260507031516 | 14 | 0 | 8.0 | 27.4 | 0.00 | 0.81 | 0.81 | 98 | 1006.2 |
| 20260507030516 | 14 | 0 | 9.7 | 30.6 | 0.00 | 0.81 | 0.81 | 98 | 1006.3 |
| 20260507025516 | 14 | 0 | 9.7 | 22.5 | 0.00 | 0.81 | 0.81 | 98 | 1006.6 |
| 20260507024537 | 14 | 0 | 8.0 | 20.9 | 0.00 | 0.81 | 0.81 | 98 | 1006.9 |
| 20260507023517 | 14 | 0 | 9.7 | 25.7 | 0.03 | 0.81 | 0.81 | 98 | 1007.0 |
| 20260507022516 | 14 | 0 | 8.0 | 24.1 | 0.03 | 0.81 | 0.81 | 98 | 1007.1 |
| 20260507021516 | 14 | 0 | 8.0 | 29.0 | 0.03 | 0.81 | 0.81 | 98 | 1007.3 |
| 20260507020516 | 14 | 0 | 8.0 | 20.9 | 0.03 | 0.81 | 0.81 | 98 | 1007.2 |
| 20260507015516 | 14 | 0 | 9.7 | 17.7 | 0.05 | 0.81 | 0.81 | 98 | 1007.4 |
| 20260507014517 | 14 | 0 | 12.9 | 25.7 | 0.08 | 0.81 | 0.81 | 98 | 1007.7 |
| 20260507013516 | 14 | 0 | 12.9 | 29.0 | 0.15 | 0.79 | 0.79 | 98 | 1007.6 |
| 20260507012516 | 14 | 0 | 11.3 | 37.0 | 0.28 | 0.79 | 0.79 | 98 | 1007.6 |
| 20260507011516 | 14 | 0 | 9.7 | 24.1 | 0.38 | 0.79 | 0.79 | 98 | 1007.7 |
| 20260507010516 | 14 | 0 | 11.3 | 27.4 | 0.41 | 0.79 | 0.79 | 98 | 1007.9 |
| 20260507005516 | 13 | 0 | 11.3 | 29.0 | 0.43 | 0.76 | 0.76 | 98 | 1007.8 |
| 20260507004516 | 13 | 0 | 12.9 | 37.0 | 0.43 | 0.74 | 0.74 | 98 | 1007.8 |
| 20260507003516 | 13 | 0 | 11.3 | 25.7 | 0.36 | 0.64 | 0.64 | 97 | 1007.7 |
| 20260507002516 | 13 | 0 | 9.7 | 24.1 | 0.28 | 0.51 | 0.51 | 97 | 1007.6 |
| 20260507001536 | 13 | 0 | 9.7 | 25.7 | 0.28 | 0.41 | 0.41 | 97 | 1007.6 |
| 20260507000516 | 13 | 0 | 9.7 | 20.9 | 0.28 | 0.38 | 0.38 | 97 | 1007.6 |
| 20260506235516 | 14 | 0 | 11.3 | 25.7 | 0.33 | 0.33 | 0.33 | 97 | 1007.8 |
| 20260506234536 | 14 | 0 | 11.3 | 24.1 | 0.30 | 0.30 | 0.30 | 96 | 1007.9 |
| 20260506233516 | 14 | 0 | 14.5 | 41.8 | 0.28 | 0.28 | 0.28 | 96 | 1008.0 |
| 20260506232536 | 14 | 0 | 11.3 | 29.0 | 0.23 | 0.23 | 0.23 | 95 | 1008.1 |
| 20260506231516 | 14 | 0 | 12.9 | 29.0 | 0.13 | 0.13 | 0.13 | 94 | 1008.3 |
| 20260506230516 | 15 | 0 | 11.3 | 29.0 | 0.10 | 0.10 | 0.10 | 93 | 1008.4 |
| 20260506225536 | 15 | 0 | 9.7 | 30.6 | 0.00 | 0.00 | 0.00 | 90 | 1008.3 |
| 20260506224516 | 15 | 0 | 12.9 | 29.0 | 0.00 | 0.00 | 0.00 | 89 | 1008.3 |
| 20260506223516 | 16 | 0 | 11.3 | 32.2 | 0.00 | 0.00 | 0.00 | 88 | 1008.1 |
| 20260506222515 | 16 | 0 | 11.3 | 29.0 | 0.00 | 0.00 | 0.00 | 87 | 1008.2 |
| 20260506221516 | 15 | 0 | 9.7 | 24.1 | 0.00 | 0.00 | 0.00 | 87 | 1008.4 |
| 20260506220515 | 16 | 0 | 9.7 | 19.3 | 0.00 | 0.00 | 0.00 | 87 | 1008.6 |
| 20260506215536 | 16 | 0 | 11.3 | 27.4 | 0.00 | 0.00 | 0.00 | 87 | 1008.4 |
| 20260506214516 | 16 | 0 | 11.3 | 24.1 | 0.00 | 0.00 | 0.00 | 86 | 1008.7 |
| 20260506213515 | 16 | 0 | 11.3 | 35.4 | 0.00 | 0.00 | 0.00 | 86 | 1008.8 |
| 20260506212535 | 16 | 0 | 11.3 | 27.4 | 0.00 | 0.00 | 0.00 | 85 | 1008.8 |
| 20260506211515 | 16 | 0 | 9.7 | 24.1 | 0.00 | 0.00 | 0.00 | 85 | 1008.7 |
| 20260506210515 | 16 | 0 | 14.5 | 38.6 | 0.00 | 0.00 | 0.00 | 84 | 1008.8 |
| 20260506205516 | 17 | 0 | 12.9 | 33.8 | 0.00 | 0.00 | 0.00 | 84 | 1009.0 |
| 20260506204519 | 17 | 0 | 12.9 | 25.7 | 0.00 | 0.00 | 0.00 | 83 | 1008.8 |
| 20260506203517 | 17 | 0 | 12.9 | 35.4 | 0.00 | 0.00 | 0.00 | 83 | 1009.2 |
| 20260506202537 | 17 | 0 | 14.5 | 35.4 | 0.00 | 0.00 | 0.00 | 83 | 1009.4 |
| 20260506201517 | 17 | 0 | 11.3 | 30.6 | 0.00 | 0.00 | 0.00 | 82 | 1009.4 |
| 20260506200518 | 17 | 0 | 11.3 | 33.8 | 0.00 | 0.00 | 0.00 | 83 | 1009.6 |
| 20260506195517 | 17 | 0 | 9.7 | 25.7 | 0.00 | 0.00 | 0.00 | 83 | 1009.4 |
| 20260506194518 | 17 | 0 | 9.7 | 33.8 | 0.00 | 0.00 | 0.00 | 83 | 1009.5 |
| 20260506193517 | 17 | 0 | 9.7 | 25.7 | 0.00 | 0.00 | 0.00 | 83 | 1009.5 |
| 20260506192517 | 17 | 0 | 12.9 | 30.6 | 0.00 | 0.00 | 0.00 | 82 | 1009.5 |
| 20260506191517 | 17 | 203 | 11.3 | 29.0 | 0.00 | 0.00 | 0.00 | 81 | 1009.8 |
| 20260506190517 | 17 | 203 | 14.5 | 30.6 | 0.00 | 0.00 | 0.00 | 81 | 1010.0 |
| 20260506185639 | 17 | 203 | 9.7 | 29.0 | 0.00 | 0.00 | 0.00 | 81 | 1010.2 |
| 20260506184517 | 17 | 203 | 11.3 | 32.2 | 0.00 | 0.00 | 0.00 | 80 | 1010.5 |
| 20260506183517 | 18 | 180 | 11.3 | 30.6 | 0.00 | 0.00 | 0.00 | 80 | 1010.5 |
| 20260506182518 | 18 | 0 | 11.3 | 27.4 | 0.00 | 0.00 | 0.00 | 78 | 1010.8 |
| 20260506181517 | 19 | 0 | 11.3 | 40.2 | 0.00 | 0.00 | 0.00 | 77 | 1011.0 |
| 20260506180538 | 19 | 0 | 12.9 | 33.8 | 0.00 | 0.00 | 0.00 | 77 | 1010.9 |
| 20260506175537 | 18 | 203 | 11.3 | 32.2 | 0.00 | 0.00 | 0.00 | 79 | 1011.0 |
| 20260506174517 | 18 | 203 | 12.9 | 32.2 | 0.00 | 0.00 | 0.00 | 80 | 1011.0 |
| 20260506173518 | 18 | 180 | 14.5 | 37.0 | 0.00 | 0.00 | 0.00 | 81 | 1010.9 |
| 20260506172517 | 17 | 203 | 14.5 | 32.2 | 0.00 | 0.00 | 0.00 | 80 | 1011.0 |
| 20260506171518 | 17 | 203 | 11.3 | 27.4 | 0.00 | 0.00 | 0.00 | 81 | 1011.3 |
| 20260506170537 | 17 | 180 | 11.3 | 30.6 | 0.00 | 0.00 | 0.00 | 81 | 1011.4 |
| 20260506165537 | 18 | 180 | 11.3 | 29.0 | 0.00 | 0.00 | 0.00 | 80 | 1011.7 |
| 20260506164517 | 18 | 203 | 16.1 | 33.8 | 0.00 | 0.00 | 0.00 | 78 | 1011.7 |
| 20260506163517 | 18 | 203 | 16.1 | 37.0 | 0.00 | 0.00 | 0.00 | 78 | 1011.9 |
| 20260506162517 | 18 | 203 | 12.9 | 38.6 | 0.00 | 0.00 | 0.00 | 79 | 1011.9 |
| 20260506161517 | 18 | 0 | 9.7 | 32.2 | 0.00 | 0.00 | 0.00 | 79 | 1012.2 |
| 20260506160517 | 18 | 0 | 11.3 | 30.6 | 0.00 | 0.00 | 0.00 | 79 | 1012.4 |
| 20260506155517 | 18 | 0 | 14.5 | 46.7 | 0.00 | 0.00 | 0.00 | 78 | 1012.5 |
| 20260506154518 | 18 | 0 | 11.3 | 33.8 | 0.00 | 0.00 | 0.00 | 79 | 1012.6 |
| 20260506153537 | 18 | 0 | 14.5 | 40.2 | 0.00 | 0.00 | 0.00 | 80 | 1012.4 |
| 20260506152517 | 18 | 0 | 12.9 | 45.1 | 0.00 | 0.00 | 0.00 | 80 | 1012.6 |
| 20260506151516 | 17 | 0 | 17.7 | 38.6 | 0.00 | 0.00 | 0.00 | 80 | 1012.5 |
| 20260506150517 | 18 | 0 | 11.3 | 25.7 | 0.00 | 0.00 | 0.00 | 81 | 1012.5 |
| 20260506145517 | 17 | 0 | 12.9 | 29.0 | 0.00 | 0.00 | 0.00 | 81 | 1012.5 |
| 20260506144518 | 18 | 0 | 12.9 | 41.8 | 0.00 | 0.00 | 0.00 | 79 | 1012.3 |
| 20260506143517 | 18 | 0 | 16.1 | 53.1 | 0.00 | 0.00 | 0.00 | 79 | 1012.5 |
| 20260506142518 | 18 | 0 | 12.9 | 38.6 | 0.00 | 0.00 | 0.00 | 81 | 1012.7 |
| 20260506141517 | 17 | 0 | 11.3 | 30.6 | 0.00 | 0.00 | 0.00 | 81 | 1012.9 |
| 20260506140517 | 17 | 0 | 12.9 | 43.5 | 0.00 | 0.00 | 0.00 | 81 | 1012.8 |
| 20260506135517 | 17 | 0 | 12.9 | 40.2 | 0.00 | 0.00 | 0.00 | 82 | 1012.7 |
| 20260506134517 | 17 | 0 | 16.1 | 35.4 | 0.00 | 0.00 | 0.00 | 83 | 1012.5 |
| 20260506133517 | 17 | 0 | 16.1 | 33.8 | 0.00 | 0.00 | 0.00 | 83 | 1012.5 |
| 20260506132517 | 17 | 0 | 11.3 | 30.6 | 0.00 | 0.00 | 0.00 | 83 | 1012.5 |
| 20260506131517 | 17 | 0 | 6.4 | 19.3 | 0.00 | 0.00 | 0.00 | 85 | 1012.7 |
| 20260506130516 | 16 | 0 | 14.5 | 38.6 | 0.00 | 0.00 | 0.00 | 85 | 1012.8 |
| 20260506125538 | 16 | 0 | 11.3 | 25.7 | 0.00 | 0.00 | 0.00 | 84 | 1012.8 |
| 20260506124516 | 16 | 0 | 12.9 | 29.0 | 0.00 | 0.00 | 0.00 | 85 | 1012.8 |
| 20260506123517 | 16 | 0 | 11.3 | 32.2 | 0.00 | 0.00 | 0.00 | 87 | 1012.7 |
| 20260506122516 | 15 | 0 | 9.7 | 33.8 | 0.00 | 0.00 | 0.00 | 89 | 1012.9 |
| 20260506121517 | 15 | 0 | 9.7 | 29.0 | 0.00 | 0.00 | 0.00 | 89 | 1013.1 |
| 20260506120536 | 15 | 0 | 12.9 | 29.0 | 0.00 | 0.00 | 0.00 | 88 | 1013.0 |
| 20260506115516 | 15 | 0 | 9.7 | 27.4 | 0.00 | 0.00 | 0.00 | 88 | 1013.0 |
| 20260506114516 | 16 | 0 | 9.7 | 30.6 | 0.00 | 0.00 | 0.00 | 88 | 1013.0 |
| 20260506113516 | 15 | 0 | 8.0 | 25.7 | 0.00 | 0.00 | 0.00 | 89 | 1012.9 |
| 20260506112516 | 15 | 0 | 9.7 | 29.0 | 0.00 | 0.00 | 0.00 | 90 | 1013.0 |
| 20260506111516 | 15 | 0 | 6.4 | 14.5 | 0.00 | 0.00 | 0.00 | 91 | 1012.9 |
| 20260506110516 | 15 | 0 | 8.0 | 22.5 | 0.00 | 0.00 | 0.00 | 91 | 1013.0 |
| 20260506105516 | 15 | 0 | 11.3 | 22.5 | 0.00 | 0.00 | 0.00 | 91 | 1012.9 |
| 20260506104516 | 15 | 0 | 9.7 | 24.1 | 0.00 | 0.00 | 0.00 | 92 | 1012.9 |
| 20260506103516 | 14 | 0 | 6.4 | 19.3 | 0.00 | 0.00 | 0.00 | 93 | 1012.9 |
| 20260506102517 | 14 | 0 | 11.3 | 32.2 | 0.00 | 0.00 | 0.00 | 93 | 1012.9 |
| 20260506101516 | 14 | 0 | 11.3 | 27.4 | 0.00 | 0.00 | 0.00 | 93 | 1013.0 |
| 20260506100516 | 13 | 0 | 11.3 | 25.7 | 0.00 | 0.00 | 0.00 | 94 | 1012.8 |
| 20260506095516 | 13 | 0 | 11.3 | 27.4 | 0.00 | 0.00 | 0.00 | 94 | 1012.9 |
| 20260506094538 | 13 | 0 | 8.0 | 29.0 | 0.00 | 0.00 | 0.00 | 94 | 1012.9 |
| 20260506093517 | 13 | 0 | 11.3 | 29.0 | 0.00 | 0.00 | 0.00 | 93 | 1013.0 |
| 20260506092516 | 13 | 0 | 11.3 | 24.1 | 0.00 | 0.00 | 0.00 | 94 | 1012.8 |
| 20260506091516 | 13 | 0 | 11.3 | 27.4 | 0.00 | 0.00 | 0.00 | 94 | 1012.9 |
| 20260506090536 | 14 | 0 | 9.7 | 29.0 | 0.00 | 0.00 | 0.00 | 93 | 1013.0 |
| 20260506085516 | 14 | 0 | 9.7 | 20.9 | 0.00 | 0.00 | 0.00 | 94 | 1012.9 |
| 20260506084516 | 14 | 0 | 9.7 | 29.0 | 0.00 | 0.00 | 0.00 | 93 | 1012.9 |
| 20260506083516 | 14 | 0 | 8.0 | 27.4 | 0.00 | 0.00 | 0.00 | 93 | 1013.0 |
| 20260506082516 | 14 | 0 | 9.7 | 22.5 | 0.00 | 0.00 | 0.00 | 93 | 1013.0 |